createdAt,value
2023-05-13T00:00:28.517Z,5.70
2023-05-13T00:02:55.123Z,5.68
2023-05-13T00:05:21.774Z,5.95
2023-05-13T00:07:48.355Z,6.10
2023-05-13T00:10:16.461Z,6.05
2023-05-13T00:12:46.576Z,6.93
2023-05-13T00:15:13.481Z,6.40
2023-05-13T00:17:43.305Z,6.05
2023-05-13T00:20:13.347Z,5.90
2023-05-13T00:22:42.702Z,6.00
2023-05-13T00:25:09.488Z,5.82
2023-05-13T00:27:35.980Z,6.70
2023-05-13T00:30:02.696Z,6.20
2023-05-13T00:32:29.268Z,6.20
2023-05-13T00:34:55.852Z,6.53
2023-05-13T00:37:22.352Z,6.47
2023-05-13T00:39:48.852Z,6.18
2023-05-13T00:42:19.668Z,6.47
2023-05-13T00:44:46.553Z,5.93
2023-05-13T00:47:13.197Z,5.78
2023-05-13T00:49:39.821Z,5.75
2023-05-13T00:52:06.533Z,6.18
2023-05-13T00:54:35.145Z,6.40
2023-05-13T00:57:04.788Z,6.05
2023-05-13T00:59:34.497Z,6.07
2023-05-13T01:02:26.123Z,5.55
2023-05-13T01:05:09.706Z,5.75
2023-05-13T01:08:02.874Z,6.72
2023-05-13T01:10:51.275Z,6.45
2023-05-13T01:13:24.877Z,5.90
2023-05-13T01:16:12.954Z,6.18
2023-05-13T01:18:52.708Z,6.60
2023-05-13T01:21:26.595Z,6.30
2023-05-13T01:23:53.173Z,6.38
2023-05-13T01:26:20.924Z,6.32
2023-05-13T01:28:50.076Z,6.57
2023-05-13T01:31:21.010Z,6.50
2023-05-13T01:33:48.740Z,6.63
2023-05-13T01:36:15.669Z,6.57
2023-05-13T01:38:43.638Z,6.95
2023-05-13T01:41:10.089Z,6.47
2023-05-13T01:43:36.593Z,6.82
2023-05-13T01:46:03.276Z,6.80
2023-05-13T01:48:29.829Z,6.80
2023-05-13T01:50:56.404Z,7.32
2023-05-13T01:53:22.847Z,6.65
2023-05-13T01:55:49.330Z,6.88
2023-05-13T01:58:15.792Z,6.53
2023-05-13T02:00:42.397Z,6.25
2023-05-13T02:03:09.055Z,6.50
2023-05-13T02:05:35.745Z,7.10
2023-05-13T02:08:02.401Z,6.20
2023-05-13T02:10:28.879Z,5.85
2023-05-13T02:12:55.313Z,6.20
2023-05-13T02:15:21.788Z,6.00
2023-05-13T02:17:48.299Z,6.43
2023-05-13T02:20:15.278Z,6.00
2023-05-13T02:22:41.866Z,6.90
2023-05-13T02:25:08.880Z,6.70
2023-05-13T02:27:35.356Z,5.90
2023-05-13T02:30:02.018Z,6.20
2023-05-13T02:32:28.614Z,5.97
2023-05-13T02:34:55.130Z,6.43
2023-05-13T02:37:21.562Z,6.60
2023-05-13T02:39:48.118Z,6.05
2023-05-13T02:42:14.615Z,5.95
2023-05-13T02:44:41.410Z,6.07
2023-05-13T02:47:10.957Z,5.82
2023-05-13T02:49:37.421Z,6.20
2023-05-13T02:52:04.086Z,6.55
2023-05-13T02:54:30.535Z,6.22
2023-05-13T02:56:57.023Z,6.40
2023-05-13T02:59:23.516Z,5.80
2023-05-13T03:01:50.224Z,6.00
2023-05-13T03:04:16.779Z,5.90
2023-05-13T03:06:43.280Z,6.35
2023-05-13T03:09:09.720Z,6.40
2023-05-13T03:11:36.212Z,5.88
2023-05-13T03:14:02.679Z,6.28
2023-05-13T03:16:29.211Z,6.30
2023-05-13T03:18:55.754Z,5.90
2023-05-13T03:21:22.410Z,6.13
2023-05-13T03:23:49.041Z,6.30
2023-05-13T03:26:16.508Z,6.90
2023-05-13T03:28:42.981Z,6.50
2023-05-13T03:31:09.654Z,6.22
2023-05-13T03:33:36.147Z,6.38
2023-05-13T03:36:02.702Z,6.20
2023-05-13T03:38:29.170Z,6.55
2023-05-13T03:40:55.672Z,6.00
2023-05-13T03:43:22.239Z,6.70
2023-05-13T03:45:50.516Z,6.57
2023-05-13T03:48:17.670Z,6.40
2023-05-13T03:50:44.296Z,6.30
2023-05-13T03:53:11.462Z,6.72
2023-05-13T03:55:38.034Z,5.90
2023-05-13T03:58:22.917Z,6.13
2023-05-13T04:00:49.591Z,6.50
2023-05-13T04:03:17.195Z,6.00
2023-05-13T04:05:47.881Z,6.00
2023-05-13T04:08:14.777Z,6.40
2023-05-13T04:10:41.285Z,6.32
2023-05-13T04:13:08.992Z,6.20
2023-05-13T04:15:38.171Z,6.63
2023-05-13T04:18:04.719Z,6.68
2023-05-13T04:20:31.163Z,6.00
2023-05-13T04:22:57.679Z,6.25
2023-05-13T04:25:24.255Z,6.47
2023-05-13T04:27:50.865Z,6.63
2023-05-13T04:30:17.416Z,6.85
2023-05-13T04:32:44.212Z,6.78
2023-05-13T04:35:14.281Z,6.53
2023-05-13T04:37:40.816Z,6.32
2023-05-13T04:40:08.363Z,6.80
2023-05-13T04:42:35.022Z,6.45
2023-05-13T04:45:01.574Z,6.28
2023-05-13T04:47:28.081Z,6.28
2023-05-13T04:49:54.628Z,6.60
2023-05-13T04:52:21.533Z,7.00
2023-05-13T04:54:47.972Z,6.90
2023-05-13T04:57:14.492Z,6.82
2023-05-13T04:59:41.064Z,6.57
2023-05-13T05:02:07.604Z,6.53
2023-05-13T05:04:34.125Z,6.85
2023-05-13T05:07:00.691Z,6.18
2023-05-13T05:09:27.184Z,6.78
2023-05-13T05:11:53.680Z,6.72
2023-05-13T05:14:20.651Z,6.22
2023-05-13T05:16:47.192Z,6.35
2023-05-13T05:19:13.783Z,6.43
2023-05-13T05:21:40.298Z,6.75
2023-05-13T05:24:07.045Z,6.38
2023-05-13T05:26:33.706Z,7.25
2023-05-13T05:29:00.192Z,7.45
2023-05-13T05:31:27.540Z,6.47
2023-05-13T05:33:55.131Z,6.47
2023-05-13T05:36:21.711Z,6.38
2023-05-13T05:38:48.197Z,6.80
2023-05-13T05:41:14.658Z,6.38
2023-05-13T05:43:41.220Z,6.88
2023-05-13T05:46:07.963Z,6.80
2023-05-13T05:48:34.867Z,6.88
2023-05-13T05:51:01.488Z,7.40
2023-05-13T05:53:28.153Z,7.50
2023-05-13T05:55:54.658Z,7.45
2023-05-13T05:58:21.208Z,7.55
2023-05-13T06:00:47.793Z,6.82
2023-05-13T06:03:14.542Z,6.35
2023-05-13T06:05:41.117Z,6.88
2023-05-13T06:08:07.588Z,6.85
2023-05-13T06:10:34.065Z,7.03
2023-05-13T06:13:00.726Z,7.25
2023-05-13T06:15:27.210Z,7.40
2023-05-13T06:17:53.776Z,7.20
2023-05-13T06:20:20.534Z,7.03
2023-05-13T06:22:48.077Z,7.38
2023-05-13T06:25:14.610Z,6.57
2023-05-13T06:27:41.135Z,7.18
2023-05-13T06:30:08.081Z,6.70
2023-05-13T06:32:34.634Z,6.82
2023-05-13T06:35:01.144Z,7.50
2023-05-13T06:37:27.677Z,7.10
2023-05-13T06:39:54.228Z,6.90
2023-05-13T06:42:20.719Z,7.60
2023-05-13T06:44:47.252Z,7.07
2023-05-13T06:47:16.091Z,7.15
2023-05-13T06:49:42.790Z,7.03
2023-05-13T06:52:09.944Z,7.13
2023-05-13T06:54:36.559Z,6.70
2023-05-13T06:57:05.636Z,7.20
2023-05-13T06:59:32.184Z,7.15
2023-05-13T07:01:58.727Z,7.60
2023-05-13T07:04:25.786Z,7.57
2023-05-13T07:06:52.296Z,7.88
2023-05-13T07:09:18.801Z,7.20
2023-05-13T07:11:45.225Z,7.68
2023-05-13T07:14:11.760Z,7.30
2023-05-13T07:16:38.294Z,7.53
2023-05-13T07:19:05.086Z,7.47
2023-05-13T07:21:31.760Z,7.80
2023-05-13T07:23:58.230Z,7.55
2023-05-13T07:26:24.717Z,7.57
2023-05-13T07:28:51.205Z,7.03
2023-05-13T07:31:17.784Z,6.82
2023-05-13T07:33:44.280Z,6.90
2023-05-13T07:36:10.786Z,7.50
2023-05-13T07:38:37.213Z,8.02
2023-05-13T07:41:03.751Z,7.75
2023-05-13T07:43:30.237Z,7.63
2023-05-13T07:45:56.704Z,8.15
2023-05-13T07:48:25.219Z,7.75
2023-05-13T07:50:51.779Z,8.18
2023-05-13T07:53:19.755Z,8.30
2023-05-13T07:55:46.586Z,7.70
2023-05-13T07:58:13.214Z,8.38
2023-05-13T08:00:39.802Z,8.10
2023-05-13T08:03:06.602Z,8.13
2023-05-13T08:05:33.145Z,8.10
2023-05-13T08:07:59.581Z,8.57
2023-05-13T08:10:26.075Z,7.97
2023-05-13T08:12:57.716Z,8.05
2023-05-13T08:15:25.410Z,7.70
2023-05-13T08:17:54.957Z,7.70
2023-05-13T08:20:23.077Z,7.50
2023-05-13T08:22:52.636Z,7.90
2023-05-13T08:25:19.514Z,8.10
2023-05-13T08:27:46.581Z,8.05
2023-05-13T08:30:13.755Z,8.35
2023-05-13T08:32:40.283Z,7.80
2023-05-13T08:35:07.102Z,8.18
2023-05-13T08:37:33.607Z,7.82
2023-05-13T08:40:01.612Z,7.63
2023-05-13T08:42:32.091Z,8.00
2023-05-13T08:45:04.817Z,8.07
2023-05-13T08:47:48.426Z,7.85
2023-05-13T08:50:15.085Z,8.05
2023-05-13T08:52:43.338Z,8.32
2023-05-13T08:55:10.125Z,8.05
2023-05-13T08:57:36.654Z,8.20
2023-05-13T09:00:05.003Z,8.63
2023-05-13T09:02:31.551Z,8.52
2023-05-13T09:05:04.619Z,8.68
2023-05-13T09:07:31.287Z,8.48
2023-05-13T09:09:58.048Z,9.60
2023-05-13T09:12:44.441Z,8.90
2023-05-13T09:15:12.924Z,9.20
2023-05-13T09:17:44.156Z,10.02
2023-05-13T09:20:12.482Z,9.23
2023-05-13T09:22:54.169Z,9.98
2023-05-13T09:25:24.410Z,9.60
2023-05-13T09:27:58.402Z,9.73
2023-05-13T09:30:28.300Z,10.23
2023-05-13T09:33:15.027Z,9.30
2023-05-13T09:35:45.444Z,10.05
2023-05-13T09:38:17.147Z,9.93
2023-05-13T09:40:56.915Z,10.65
2023-05-13T09:43:33.388Z,10.00
2023-05-13T09:46:08.935Z,10.95
2023-05-13T09:48:36.520Z,10.10
2023-05-13T09:51:03.176Z,6.00
2023-05-13T09:53:31.335Z,6.38
2023-05-13T09:56:00.048Z,6.80
2023-05-13T09:58:31.042Z,6.32
2023-05-13T10:00:58.173Z,6.68
2023-05-13T10:03:25.159Z,6.60
2023-05-13T10:05:53.564Z,6.38
2023-05-13T10:08:20.233Z,6.70
2023-05-13T10:10:49.566Z,6.63
2023-05-13T10:13:19.858Z,7.25
2023-05-13T10:15:51.293Z,7.03
2023-05-13T10:18:19.040Z,7.50
2023-05-13T10:20:46.882Z,7.90
2023-05-13T10:23:13.536Z,6.30
2023-05-13T10:25:40.995Z,6.80
2023-05-13T10:28:09.669Z,6.28
2023-05-13T10:30:36.468Z,6.47
2023-05-13T10:33:04.170Z,6.43
2023-05-13T10:35:37.063Z,6.30
2023-05-13T10:38:09.249Z,6.15
2023-05-13T10:40:55.566Z,4.57
2023-05-13T10:43:32.741Z,5.45
2023-05-13T10:46:05.719Z,3.97
2023-05-13T10:48:49.794Z,4.53
2023-05-13T10:51:18.122Z,4.80
2023-05-13T10:53:48.571Z,4.50
2023-05-13T10:56:18.594Z,3.95
2023-05-13T10:59:02.364Z,4.68
2023-05-13T11:01:30.981Z,4.07
2023-05-13T11:04:00.459Z,4.30
2023-05-13T11:06:34.722Z,4.97
2023-05-13T11:09:01.672Z,5.10
2023-05-13T11:11:36.621Z,5.03
2023-05-13T11:14:10.285Z,5.10
2023-05-13T11:16:37.842Z,5.22
2023-05-13T11:19:18.180Z,4.70
2023-05-13T11:21:49.677Z,4.63
2023-05-13T11:24:18.810Z,5.45
2023-05-13T11:26:59.309Z,4.93
2023-05-13T11:29:36.413Z,5.07
2023-05-13T11:32:05.125Z,5.43
2023-05-13T11:34:32.900Z,4.57
2023-05-13T11:37:05.161Z,4.53
2023-05-13T11:39:32.882Z,5.40
2023-05-13T11:42:03.972Z,4.82
2023-05-13T11:44:30.904Z,4.80
2023-05-13T11:47:08.301Z,4.75
2023-05-13T11:49:43.092Z,4.80
2023-05-13T11:52:12.022Z,5.13
2023-05-13T11:54:43.042Z,4.90
2023-05-13T11:57:24.296Z,4.85
2023-05-13T12:00:07.028Z,4.78
2023-05-13T12:02:39.812Z,4.95
2023-05-13T12:05:08.902Z,4.75
2023-05-13T12:07:37.485Z,4.50
2023-05-13T12:10:05.393Z,4.57
2023-05-13T12:12:34.716Z,4.60
2023-05-13T12:15:07.056Z,4.55
2023-05-13T12:17:34.221Z,4.35
2023-05-13T12:20:21.293Z,4.82
2023-05-13T12:22:48.173Z,3.88
2023-05-13T12:25:46.858Z,4.22
2023-05-13T12:28:20.134Z,4.10
2023-05-13T12:30:58.564Z,3.80
2023-05-13T12:33:30.376Z,3.67
2023-05-13T12:39:04.473Z,3.65
2023-05-13T12:41:32.639Z,3.28
2023-05-13T12:44:08.242Z,3.22
2023-05-13T12:46:35.317Z,3.30
2023-05-13T12:49:04.323Z,3.00
2023-05-13T12:51:31.139Z,2.83
2023-05-13T12:54:00.886Z,3.22
2023-05-13T12:56:27.558Z,3.13
2023-05-13T12:58:54.431Z,2.80
2023-05-13T13:01:21.699Z,3.25
2023-05-13T13:03:48.411Z,3.13
2023-05-13T13:06:15.585Z,3.38
2023-05-13T13:08:42.406Z,3.42
2023-05-13T13:11:09.245Z,3.15
2023-05-13T13:13:38.769Z,2.70
2023-05-13T13:16:06.160Z,2.92
2023-05-13T13:18:32.750Z,3.17
2023-05-13T13:20:59.210Z,2.95
2023-05-13T13:23:25.760Z,2.92
2023-05-13T13:25:52.386Z,2.78
2023-05-13T13:28:20.089Z,2.70
2023-05-13T13:30:47.222Z,2.58
2023-05-13T13:33:17.308Z,2.90
2023-05-13T13:35:44.891Z,2.95
2023-05-13T13:38:11.543Z,2.78
2023-05-13T13:40:38.030Z,3.20
2023-05-13T13:43:05.782Z,3.08
2023-05-13T13:45:32.315Z,3.03
2023-05-13T13:47:59.395Z,3.05
2023-05-13T13:50:26.468Z,3.08
2023-05-13T13:52:53.230Z,2.53
2023-05-13T13:55:21.206Z,2.70
2023-05-13T13:57:47.903Z,2.75
2023-05-13T14:00:16.010Z,2.90
2023-05-13T14:02:45.674Z,2.50
2023-05-13T14:05:13.502Z,3.20
2023-05-13T14:07:40.053Z,3.30
2023-05-13T14:10:07.583Z,3.40
2023-05-13T14:12:36.268Z,3.22
2023-05-13T14:15:03.278Z,3.00
2023-05-13T14:17:29.807Z,3.30
2023-05-13T14:19:56.370Z,3.13
2023-05-13T14:22:23.978Z,3.15
2023-05-13T14:24:53.494Z,3.45
2023-05-13T14:27:20.826Z,3.17
2023-05-13T14:29:47.909Z,3.50
2023-05-13T14:32:14.685Z,3.60
2023-05-13T14:34:41.270Z,2.95
2023-05-13T14:37:08.020Z,3.35
2023-05-13T14:39:34.499Z,3.25
2023-05-13T14:42:01.424Z,3.17
2023-05-13T14:44:27.899Z,3.53
2023-05-13T14:46:54.766Z,3.33
2023-05-13T14:49:21.292Z,3.42
2023-05-13T14:51:47.803Z,3.38
2023-05-13T14:54:14.330Z,3.15
2023-05-13T14:56:41.495Z,3.50
2023-05-13T14:59:08.229Z,2.80
2023-05-13T15:01:34.946Z,3.40
2023-05-13T15:04:01.690Z,3.45
2023-05-13T15:06:29.131Z,3.13
2023-05-13T15:08:56.389Z,3.47
2023-05-13T15:11:23.251Z,2.80
2023-05-13T15:13:49.786Z,3.20
2023-05-13T15:16:16.282Z,3.10
2023-05-13T15:18:42.976Z,3.33
2023-05-13T15:21:09.564Z,3.05
2023-05-13T15:23:36.126Z,3.42
2023-05-13T15:26:02.654Z,3.17
2023-05-13T15:28:31.797Z,3.92
2023-05-13T15:31:01.088Z,3.55
2023-05-13T15:33:27.672Z,3.10
2023-05-13T16:47:11.089Z,4.05
2023-05-13T16:49:37.564Z,4.05
2023-05-13T16:52:05.085Z,4.57
2023-05-13T16:54:31.864Z,3.88
2023-05-13T16:56:58.683Z,4.13
2023-05-13T16:59:26.801Z,4.32
2023-05-13T17:01:53.769Z,4.68
2023-05-13T17:04:21.223Z,4.28
2023-05-13T17:06:49.294Z,4.10
2023-05-13T17:09:16.170Z,4.00
2023-05-13T17:11:42.711Z,4.35
2023-05-13T17:14:09.189Z,3.90
2023-05-13T17:16:35.940Z,3.75
2023-05-13T17:19:03.215Z,3.88
2023-05-13T17:21:29.896Z,4.07
2023-05-13T17:23:56.495Z,4.00
2023-05-13T17:26:23.178Z,4.07
2023-05-13T17:28:49.805Z,4.20
2023-05-13T17:31:16.759Z,4.15
2023-05-13T17:33:46.949Z,4.28
2023-05-13T17:36:13.601Z,4.10
2023-05-13T17:38:40.052Z,3.83
2023-05-13T17:41:06.585Z,3.72
2023-05-13T17:43:33.099Z,3.40
2023-05-13T17:46:02.416Z,3.97
2023-05-13T17:48:29.071Z,3.78
2023-05-13T17:50:55.858Z,3.90
2023-05-13T17:53:22.313Z,3.53
2023-05-13T17:55:49.323Z,3.67
2023-05-13T17:58:16.478Z,3.40
2023-05-13T18:00:43.261Z,3.90
2023-05-13T18:03:09.897Z,3.90
2023-05-13T18:05:39.835Z,3.78
2023-05-13T18:08:07.419Z,4.25
2023-05-13T18:10:33.932Z,4.00
2023-05-13T18:13:00.398Z,4.35
2023-05-13T18:15:26.844Z,4.20
2023-05-13T18:17:53.435Z,4.40
2023-05-13T18:20:20.194Z,4.05
2023-05-13T18:22:47.071Z,3.78
2023-05-13T18:25:13.575Z,4.00
2023-05-13T18:27:40.057Z,3.85
2023-05-13T18:30:08.984Z,3.78
2023-05-13T18:32:35.600Z,4.22
2023-05-13T18:35:02.116Z,4.35
2023-05-13T18:37:28.667Z,4.40
2023-05-13T18:39:57.116Z,4.20
2023-05-13T18:42:24.229Z,4.07
2023-05-13T18:44:50.710Z,4.00
2023-05-13T18:47:17.768Z,4.13
2023-05-13T18:49:44.284Z,4.40
2023-05-13T18:52:10.774Z,5.43
2023-05-13T18:54:37.445Z,4.90
2023-05-13T18:57:04.182Z,5.18
2023-05-13T18:59:30.815Z,5.40
2023-05-13T19:01:58.470Z,4.60
2023-05-13T19:04:25.391Z,5.00
2023-05-13T19:06:52.099Z,4.93
2023-05-13T19:09:18.632Z,4.60
2023-05-13T19:11:45.116Z,4.60
2023-05-13T19:14:15.049Z,4.57
2023-05-13T19:16:41.572Z,4.63
2023-05-13T19:19:10.936Z,4.57
2023-05-13T19:21:40.484Z,4.72
2023-05-13T19:24:07.006Z,4.45
2023-05-13T19:26:34.683Z,4.63
2023-05-13T19:29:01.512Z,4.50
2023-05-13T19:31:28.038Z,4.68
2023-05-13T19:33:55.027Z,4.70
2023-05-13T19:36:23.696Z,4.32
2023-05-13T19:38:50.258Z,4.32
2023-05-13T19:41:16.716Z,4.50
2023-05-13T19:43:43.279Z,4.38
2023-05-13T19:46:09.827Z,4.45
2023-05-13T19:48:36.350Z,4.70
2023-05-13T19:51:02.870Z,4.75
2023-05-13T19:53:29.329Z,4.35
2023-05-13T19:55:55.960Z,5.50
2023-05-13T19:58:22.457Z,5.60
2023-05-13T20:00:49.007Z,5.40
2023-05-13T20:03:15.777Z,4.95
2023-05-13T20:05:42.442Z,4.90
2023-05-13T20:08:09.002Z,5.18
2023-05-13T20:10:36.660Z,5.28
2023-05-13T20:13:04.838Z,5.50
2023-05-13T20:15:32.122Z,6.07
2023-05-13T20:17:58.757Z,6.05
2023-05-13T20:20:25.533Z,5.35
2023-05-13T20:22:52.184Z,5.78
2023-05-13T20:25:18.736Z,6.03
2023-05-13T20:27:45.377Z,6.00
2023-05-13T20:30:12.610Z,5.85
2023-05-13T20:32:39.182Z,5.88
2023-05-13T20:35:07.530Z,6.03
2023-05-13T20:37:34.375Z,5.65
2023-05-13T20:40:00.998Z,5.72
2023-05-13T20:42:27.447Z,6.10
2023-05-13T20:44:56.998Z,6.00
2023-05-13T20:47:23.495Z,6.43
2023-05-13T20:49:50.108Z,5.72
2023-05-13T20:52:16.698Z,5.60
2023-05-13T20:54:43.276Z,5.22
2023-05-13T20:57:09.732Z,5.90
2023-05-13T20:59:36.269Z,6.10
2023-05-13T21:02:02.876Z,5.97
2023-05-13T21:04:29.502Z,5.85
2023-05-13T21:06:59.845Z,5.65
2023-05-13T21:09:26.297Z,5.60
2023-05-13T21:11:52.757Z,6.00
2023-05-13T21:14:19.253Z,5.68
2023-05-13T21:16:45.714Z,5.90
2023-05-13T21:19:23.080Z,6.03
2023-05-13T21:21:49.902Z,6.50
2023-05-13T21:24:18.262Z,6.13
2023-05-13T21:26:45.472Z,6.07
2023-05-13T21:29:12.082Z,6.45
2023-05-13T21:31:38.619Z,5.93
2023-05-13T21:34:05.179Z,6.50
2023-05-13T21:36:33.228Z,6.38
2023-05-13T21:38:59.688Z,6.57
2023-05-13T21:41:26.809Z,6.07
2023-05-13T21:43:53.299Z,5.78
2023-05-13T21:46:19.760Z,6.60
2023-05-13T21:48:46.826Z,6.13
2023-05-13T21:51:13.499Z,6.55
2023-05-13T21:53:40.014Z,6.55
2023-05-13T21:56:06.695Z,6.28
2023-05-13T21:58:33.247Z,6.32
2023-05-13T22:01:00.276Z,6.85
2023-05-13T22:03:30.293Z,6.18
2023-05-13T22:05:57.012Z,6.40
2023-05-13T22:08:23.601Z,6.80
2023-05-13T22:10:52.718Z,7.47
2023-05-13T22:13:21.408Z,6.90
2023-05-13T22:15:48.857Z,6.85
2023-05-13T22:18:15.677Z,7.40
2023-05-13T22:20:42.544Z,7.35
2023-05-13T22:23:11.572Z,7.80
2023-05-13T22:25:39.987Z,7.43
2023-05-13T22:28:09.939Z,7.50
2023-05-13T22:30:36.427Z,6.88
2023-05-13T22:33:02.953Z,7.65
2023-05-13T22:35:29.568Z,7.80
2023-05-13T22:37:56.014Z,7.22
2023-05-13T22:40:24.983Z,7.38
2023-05-13T22:42:51.591Z,7.55
2023-05-13T22:45:24.869Z,7.70
2023-05-13T22:47:54.013Z,8.00
2023-05-13T22:50:20.631Z,7.82
2023-05-13T22:52:47.279Z,7.68
2023-05-13T22:55:13.759Z,7.55
2023-05-13T22:57:40.469Z,7.68
2023-05-13T23:00:11.606Z,8.18
2023-05-13T23:02:38.198Z,7.97
2023-05-13T23:05:05.156Z,7.18
2023-05-13T23:07:31.619Z,7.60
2023-05-13T23:10:00.807Z,7.80
2023-05-13T23:12:33.423Z,7.10
2023-05-13T23:15:10.368Z,6.75
2023-05-13T23:17:40.799Z,7.45
2023-05-13T23:20:07.945Z,7.20
2023-05-13T23:22:34.455Z,7.22
2023-05-13T23:25:00.944Z,7.20
2023-05-13T23:27:27.419Z,6.75
2023-05-13T23:29:55.542Z,7.22
2023-05-13T23:32:23.878Z,7.43
2023-05-13T23:34:53.753Z,7.72
2023-05-13T23:37:21.849Z,7.78
2023-05-13T23:39:48.365Z,8.10
2023-05-13T23:42:16.618Z,7.50
2023-05-13T23:44:43.091Z,7.25
2023-05-13T23:47:11.627Z,7.22
2023-05-13T23:49:38.153Z,6.88
2023-05-13T23:52:05.082Z,7.32
2023-05-13T23:54:31.555Z,7.30
2023-05-13T23:56:58.104Z,7.35
2023-05-13T23:59:24.530Z,7.47
